HKJK Airport Information

Runway Information
Runway 06 Length 13507 ft width 148 ft
Elevation 5330 ft Threshold 0 ft Heading 54
Runway 24 Length 13507 ft Width 148 ft
Elevation 5281 ft Threshold 0 ft Heading 234
Airport Frequencies
Type APP Name APP Frequency 122.3 MHZ
Type ATIS Name ATIS Frequency 126.2 MHZ
Type RMP Name APRON CTL Frequency 121.6 MHZ
Type TWR Name TWR Frequency 118.7 MHZ
Airport Navaids
Type NDB Name Embakasi Frequency 379 KHZ
Type NDB Name Ngong Frequency 315 KHZ
Type VOR-DME Name Ngong Frequency 115900 KHZ
Type NDB Name Nairobi Frequency 283 KHZ
Type NDB Name Nairobi Frequency 278 KHZ
Type VOR-DME Name Nairobi Frequency 113100 KHZ
Type NDB Name Athi River Frequency 330 KHZ
Type VOR Name Athi River Frequency 115500 KHZ
Airport Weather Information & NOTAM
ADDS - METARS form results

(1730 UTC 24 May 2018)
 
METAR text: HKJK 241700Z 17006KT 9999 FEW030 SCT070 19/15 Q1021
Conditions at: HKJK (NAIROBI/JOMO KEN, KE) observed 1700 UTC 24 May 2018
Temperature: 19.0°C (66°F)
Dewpoint: 15.0°C (59°F) [RH = 78%]
Pressure (altimeter): 30.15 inches Hg (1021.0 mb)
Winds: from the S (170 degrees) at 7 MPH (6 knots; 3.1 m/s)
Visibility: 6 or more miles (10+ km)
Ceiling: at least 12,000 feet AGL
Clouds: few clouds at 3000 feet AGL
scattered clouds at 7000 feet AGL
Weather: no significant weather observed at this time